sensor_id;sensor_type;location;lat;lon;timestamp;P1;durP1;ratioP1;P2;durP2;ratioP2
52316;SDS011;38725;41.994;21.458;2022-08-19T00:01:35;20.02;;;9.57;;
52316;SDS011;38725;41.994;21.458;2022-08-19T00:04:03;27.60;;;9.95;;
52316;SDS011;38725;41.994;21.458;2022-08-19T00:06:29;19.25;;;9.45;;
52316;SDS011;38725;41.994;21.458;2022-08-19T00:08:56;22.17;;;9.20;;
52316;SDS011;38725;41.994;21.458;2022-08-19T00:11:23;19.85;;;8.55;;
52316;SDS011;38725;41.994;21.458;2022-08-19T00:13:51;14.70;;;7.43;;
52316;SDS011;38725;41.994;21.458;2022-08-19T00:16:18;15.48;;;7.35;;
52316;SDS011;38725;41.994;21.458;2022-08-19T00:18:44;14.73;;;7.05;;
52316;SDS011;38725;41.994;21.458;2022-08-19T00:21:10;15.20;;;6.97;;
52316;SDS011;38725;41.994;21.458;2022-08-19T00:23:36;14.18;;;7.43;;
52316;SDS011;38725;41.994;21.458;2022-08-19T00:26:03;17.23;;;8.48;;
52316;SDS011;38725;41.994;21.458;2022-08-19T00:28:30;18.92;;;7.90;;
52316;SDS011;38725;41.994;21.458;2022-08-19T00:30:56;16.73;;;7.47;;
52316;SDS011;38725;41.994;21.458;2022-08-19T00:33:23;21.60;;;7.78;;
52316;SDS011;38725;41.994;21.458;2022-08-19T00:35:49;13.45;;;7.40;;
52316;SDS011;38725;41.994;21.458;2022-08-19T00:38:15;14.13;;;7.15;;
52316;SDS011;38725;41.994;21.458;2022-08-19T00:40:44;13.40;;;7.03;;
52316;SDS011;38725;41.994;21.458;2022-08-19T00:43:11;10.65;;;6.72;;
52316;SDS011;38725;41.994;21.458;2022-08-19T00:45:38;15.25;;;7.15;;
52316;SDS011;38725;41.994;21.458;2022-08-19T00:48:07;11.77;;;6.53;;
52316;SDS011;38725;41.994;21.458;2022-08-19T00:50:33;9.00;;;6.13;;
52316;SDS011;38725;41.994;21.458;2022-08-19T00:53:00;11.32;;;6.82;;
52316;SDS011;38725;41.994;21.458;2022-08-19T00:55:29;9.32;;;6.63;;
52316;SDS011;38725;41.994;21.458;2022-08-19T00:57:58;11.68;;;6.50;;
52316;SDS011;38725;41.994;21.458;2022-08-19T01:00:26;17.05;;;6.80;;
52316;SDS011;38725;41.994;21.458;2022-08-19T01:02:52;10.45;;;6.57;;
52316;SDS011;38725;41.994;21.458;2022-08-19T01:05:20;12.45;;;6.97;;
52316;SDS011;38725;41.994;21.458;2022-08-19T01:07:47;8.98;;;6.15;;
52316;SDS011;38725;41.994;21.458;2022-08-19T01:10:17;13.77;;;6.65;;
52316;SDS011;38725;41.994;21.458;2022-08-19T01:12:48;9.65;;;5.65;;
52316;SDS011;38725;41.994;21.458;2022-08-19T01:15:15;13.13;;;6.72;;
52316;SDS011;38725;41.994;21.458;2022-08-19T01:17:42;12.43;;;6.40;;
52316;SDS011;38725;41.994;21.458;2022-08-19T01:20:13;11.75;;;6.43;;
52316;SDS011;38725;41.994;21.458;2022-08-19T01:22:50;10.73;;;6.97;;
52316;SDS011;38725;41.994;21.458;2022-08-19T01:25:20;10.52;;;6.10;;
52316;SDS011;38725;41.994;21.458;2022-08-19T01:27:47;11.73;;;6.57;;
52316;SDS011;38725;41.994;21.458;2022-08-19T01:30:16;14.00;;;6.28;;
52316;SDS011;38725;41.994;21.458;2022-08-19T01:32:42;10.05;;;6.03;;
52316;SDS011;38725;41.994;21.458;2022-08-19T01:35:08;11.27;;;5.85;;
52316;SDS011;38725;41.994;21.458;2022-08-19T01:37:49;8.70;;;6.15;;
52316;SDS011;38725;41.994;21.458;2022-08-19T01:40:16;12.45;;;6.47;;
52316;SDS011;38725;41.994;21.458;2022-08-19T01:42:44;12.68;;;6.15;;
52316;SDS011;38725;41.994;21.458;2022-08-19T01:45:10;12.00;;;5.22;;
52316;SDS011;38725;41.994;21.458;2022-08-19T01:47:36;6.93;;;5.05;;
52316;SDS011;38725;41.994;21.458;2022-08-19T01:50:04;12.27;;;5.43;;
52316;SDS011;38725;41.994;21.458;2022-08-19T01:52:30;9.45;;;5.95;;
52316;SDS011;38725;41.994;21.458;2022-08-19T01:54:56;10.50;;;5.75;;
52316;SDS011;38725;41.994;21.458;2022-08-19T01:57:23;11.20;;;6.57;;
52316;SDS011;38725;41.994;21.458;2022-08-19T01:59:49;13.65;;;6.20;;
52316;SDS011;38725;41.994;21.458;2022-08-19T02:02:16;13.65;;;7.55;;
52316;SDS011;38725;41.994;21.458;2022-08-19T02:04:42;16.17;;;7.85;;
52316;SDS011;38725;41.994;21.458;2022-08-19T02:07:10;12.88;;;7.80;;
52316;SDS011;38725;41.994;21.458;2022-08-19T02:09:37;18.77;;;10.48;;
52316;SDS011;38725;41.994;21.458;2022-08-19T02:12:03;16.48;;;9.98;;
52316;SDS011;38725;41.994;21.458;2022-08-19T02:14:30;17.35;;;9.73;;
52316;SDS011;38725;41.994;21.458;2022-08-19T02:16:56;23.13;;;10.15;;
52316;SDS011;38725;41.994;21.458;2022-08-19T02:19:22;13.85;;;8.80;;
52316;SDS011;38725;41.994;21.458;2022-08-19T02:21:48;20.60;;;10.40;;
52316;SDS011;38725;41.994;21.458;2022-08-19T02:24:14;20.10;;;10.02;;
52316;SDS011;38725;41.994;21.458;2022-08-19T02:26:40;20.08;;;9.68;;
52316;SDS011;38725;41.994;21.458;2022-08-19T02:29:07;19.48;;;9.38;;
52316;SDS011;38725;41.994;21.458;2022-08-19T02:31:33;17.42;;;10.00;;
52316;SDS011;38725;41.994;21.458;2022-08-19T02:33:59;17.25;;;9.93;;
52316;SDS011;38725;41.994;21.458;2022-08-19T02:36:26;16.02;;;9.27;;
52316;SDS011;38725;41.994;21.458;2022-08-19T02:38:53;15.02;;;9.00;;
52316;SDS011;38725;41.994;21.458;2022-08-19T02:41:23;13.70;;;8.80;;
52316;SDS011;38725;41.994;21.458;2022-08-19T02:43:49;16.98;;;8.60;;
52316;SDS011;38725;41.994;21.458;2022-08-19T02:48:43;16.50;;;8.90;;
52316;SDS011;38725;41.994;21.458;2022-08-19T02:51:14;14.10;;;8.68;;
52316;SDS011;38725;41.994;21.458;2022-08-19T02:53:41;15.73;;;8.85;;
52316;SDS011;38725;41.994;21.458;2022-08-19T02:56:07;19.10;;;9.13;;
52316;SDS011;38725;41.994;21.458;2022-08-19T02:58:33;17.67;;;9.10;;
52316;SDS011;38725;41.994;21.458;2022-08-19T03:00:59;15.30;;;8.25;;
52316;SDS011;38725;41.994;21.458;2022-08-19T03:03:26;13.48;;;7.13;;
52316;SDS011;38725;41.994;21.458;2022-08-19T03:06:02;13.60;;;7.05;;
52316;SDS011;38725;41.994;21.458;2022-08-19T03:08:28;11.95;;;5.90;;
52316;SDS011;38725;41.994;21.458;2022-08-19T03:10:55;11.30;;;6.40;;
52316;SDS011;38725;41.994;21.458;2022-08-19T03:13:21;8.73;;;6.00;;
52316;SDS011;38725;41.994;21.458;2022-08-19T03:15:48;16.23;;;6.63;;
52316;SDS011;38725;41.994;21.458;2022-08-19T03:18:14;12.07;;;6.63;;
52316;SDS011;38725;41.994;21.458;2022-08-19T03:20:48;13.90;;;6.38;;
52316;SDS011;38725;41.994;21.458;2022-08-19T03:23:14;12.27;;;6.00;;
52316;SDS011;38725;41.994;21.458;2022-08-19T03:25:43;13.23;;;6.68;;
52316;SDS011;38725;41.994;21.458;2022-08-19T03:28:10;11.07;;;6.15;;
52316;SDS011;38725;41.994;21.458;2022-08-19T03:30:37;10.52;;;6.43;;
52316;SDS011;38725;41.994;21.458;2022-08-19T03:33:05;11.60;;;6.68;;
52316;SDS011;38725;41.994;21.458;2022-08-19T03:35:32;13.88;;;6.80;;
52316;SDS011;38725;41.994;21.458;2022-08-19T03:37:58;12.48;;;6.63;;
52316;SDS011;38725;41.994;21.458;2022-08-19T03:40:25;12.90;;;6.88;;
52316;SDS011;38725;41.994;21.458;2022-08-19T03:42:51;12.65;;;7.72;;
52316;SDS011;38725;41.994;21.458;2022-08-19T03:45:17;14.88;;;7.05;;
52316;SDS011;38725;41.994;21.458;2022-08-19T03:47:44;12.00;;;7.55;;
52316;SDS011;38725;41.994;21.458;2022-08-19T03:50:14;17.90;;;8.13;;
52316;SDS011;38725;41.994;21.458;2022-08-19T03:52:40;12.55;;;8.05;;
52316;SDS011;38725;41.994;21.458;2022-08-19T03:55:06;19.10;;;8.63;;
52316;SDS011;38725;41.994;21.458;2022-08-19T03:57:33;17.77;;;8.20;;
52316;SDS011;38725;41.994;21.458;2022-08-19T03:59:59;17.42;;;8.30;;
52316;SDS011;38725;41.994;21.458;2022-08-19T04:02:26;18.65;;;7.88;;
52316;SDS011;38725;41.994;21.458;2022-08-19T04:04:53;13.73;;;8.05;;
52316;SDS011;38725;41.994;21.458;2022-08-19T04:07:20;12.25;;;7.85;;
52316;SDS011;38725;41.994;21.458;2022-08-19T04:09:54;18.35;;;9.43;;
52316;SDS011;38725;41.994;21.458;2022-08-19T04:12:22;14.45;;;8.27;;
52316;SDS011;38725;41.994;21.458;2022-08-19T04:14:48;17.23;;;7.82;;
52316;SDS011;38725;41.994;21.458;2022-08-19T04:17:14;16.27;;;8.88;;
52316;SDS011;38725;41.994;21.458;2022-08-19T04:19:40;15.43;;;8.32;;
52316;SDS011;38725;41.994;21.458;2022-08-19T04:22:08;18.48;;;9.38;;
52316;SDS011;38725;41.994;21.458;2022-08-19T04:24:36;17.38;;;8.48;;
52316;SDS011;38725;41.994;21.458;2022-08-19T04:27:03;15.43;;;7.60;;
52316;SDS011;38725;41.994;21.458;2022-08-19T04:29:30;15.30;;;8.00;;
52316;SDS011;38725;41.994;21.458;2022-08-19T04:31:57;16.75;;;8.55;;
52316;SDS011;38725;41.994;21.458;2022-08-19T04:34:26;16.33;;;8.52;;
52316;SDS011;38725;41.994;21.458;2022-08-19T04:36:53;20.67;;;8.85;;
52316;SDS011;38725;41.994;21.458;2022-08-19T04:39:22;18.90;;;8.95;;
52316;SDS011;38725;41.994;21.458;2022-08-19T04:42:08;19.30;;;8.48;;
52316;SDS011;38725;41.994;21.458;2022-08-19T04:44:53;14.80;;;8.02;;
52316;SDS011;38725;41.994;21.458;2022-08-19T04:47:20;15.50;;;8.27;;
52316;SDS011;38725;41.994;21.458;2022-08-19T04:49:46;16.63;;;8.30;;
52316;SDS011;38725;41.994;21.458;2022-08-19T04:52:13;12.48;;;7.03;;
52316;SDS011;38725;41.994;21.458;2022-08-19T04:54:40;13.55;;;6.47;;
52316;SDS011;38725;41.994;21.458;2022-08-19T04:57:07;11.38;;;6.85;;
52316;SDS011;38725;41.994;21.458;2022-08-19T04:59:35;12.05;;;6.93;;
52316;SDS011;38725;41.994;21.458;2022-08-19T05:02:02;10.40;;;6.32;;
52316;SDS011;38725;41.994;21.458;2022-08-19T05:04:28;12.43;;;6.38;;
52316;SDS011;38725;41.994;21.458;2022-08-19T05:06:55;9.85;;;6.50;;
52316;SDS011;38725;41.994;21.458;2022-08-19T05:09:22;9.98;;;6.13;;
52316;SDS011;38725;41.994;21.458;2022-08-19T05:11:48;10.63;;;6.68;;
52316;SDS011;38725;41.994;21.458;2022-08-19T05:14:17;11.23;;;7.20;;
52316;SDS011;38725;41.994;21.458;2022-08-19T05:16:44;18.60;;;7.78;;
52316;SDS011;38725;41.994;21.458;2022-08-19T05:19:10;20.45;;;6.78;;
52316;SDS011;38725;41.994;21.458;2022-08-19T05:21:55;21.30;;;7.53;;
52316;SDS011;38725;41.994;21.458;2022-08-19T05:24:40;12.80;;;7.00;;
52316;SDS011;38725;41.994;21.458;2022-08-19T05:27:06;17.83;;;7.45;;
52316;SDS011;38725;41.994;21.458;2022-08-19T05:29:32;19.45;;;7.88;;
52316;SDS011;38725;41.994;21.458;2022-08-19T05:32:00;15.90;;;8.57;;
52316;SDS011;38725;41.994;21.458;2022-08-19T05:34:26;13.18;;;7.38;;
52316;SDS011;38725;41.994;21.458;2022-08-19T05:36:54;18.20;;;7.75;;
52316;SDS011;38725;41.994;21.458;2022-08-19T05:39:22;11.23;;;7.22;;
52316;SDS011;38725;41.994;21.458;2022-08-19T05:41:51;17.02;;;8.05;;
52316;SDS011;38725;41.994;21.458;2022-08-19T05:44:18;14.50;;;7.80;;
52316;SDS011;38725;41.994;21.458;2022-08-19T05:46:47;20.48;;;8.68;;
52316;SDS011;38725;41.994;21.458;2022-08-19T05:49:14;18.92;;;7.97;;
52316;SDS011;38725;41.994;21.458;2022-08-19T05:51:40;18.60;;;7.85;;
52316;SDS011;38725;41.994;21.458;2022-08-19T05:54:07;20.75;;;8.35;;
52316;SDS011;38725;41.994;21.458;2022-08-19T05:56:34;16.58;;;8.68;;
52316;SDS011;38725;41.994;21.458;2022-08-19T05:59:04;20.45;;;8.13;;
52316;SDS011;38725;41.994;21.458;2022-08-19T06:01:36;25.70;;;7.93;;
52316;SDS011;38725;41.994;21.458;2022-08-19T06:04:03;17.75;;;7.80;;
52316;SDS011;38725;41.994;21.458;2022-08-19T06:06:29;23.85;;;7.47;;
52316;SDS011;38725;41.994;21.458;2022-08-19T06:08:55;13.98;;;7.28;;
52316;SDS011;38725;41.994;21.458;2022-08-19T06:13:49;13.63;;;7.32;;
52316;SDS011;38725;41.994;21.458;2022-08-19T06:16:18;11.88;;;7.30;;
52316;SDS011;38725;41.994;21.458;2022-08-19T06:18:46;16.30;;;7.47;;
52316;SDS011;38725;41.994;21.458;2022-08-19T06:21:12;19.17;;;8.07;;
52316;SDS011;38725;41.994;21.458;2022-08-19T06:23:39;14.82;;;8.07;;
52316;SDS011;38725;41.994;21.458;2022-08-19T06:26:05;12.80;;;7.68;;
52316;SDS011;38725;41.994;21.458;2022-08-19T06:28:32;13.35;;;8.43;;
52316;SDS011;38725;41.994;21.458;2022-08-19T06:30:59;11.43;;;7.32;;
52316;SDS011;38725;41.994;21.458;2022-08-19T06:33:26;13.73;;;7.85;;
52316;SDS011;38725;41.994;21.458;2022-08-19T06:35:52;17.70;;;8.10;;
52316;SDS011;38725;41.994;21.458;2022-08-19T06:38:18;13.93;;;8.23;;
52316;SDS011;38725;41.994;21.458;2022-08-19T06:40:47;17.33;;;8.05;;
52316;SDS011;38725;41.994;21.458;2022-08-19T06:43:13;17.65;;;7.93;;
52316;SDS011;38725;41.994;21.458;2022-08-19T06:45:40;13.77;;;7.30;;
52316;SDS011;38725;41.994;21.458;2022-08-19T06:48:07;16.30;;;7.80;;
52316;SDS011;38725;41.994;21.458;2022-08-19T06:50:33;16.60;;;7.72;;
52316;SDS011;38725;41.994;21.458;2022-08-19T06:52:59;12.25;;;7.20;;
52316;SDS011;38725;41.994;21.458;2022-08-19T06:55:27;19.25;;;7.53;;
52316;SDS011;38725;41.994;21.458;2022-08-19T06:57:55;11.88;;;6.85;;
52316;SDS011;38725;41.994;21.458;2022-08-19T07:00:21;13.93;;;7.22;;
52316;SDS011;38725;41.994;21.458;2022-08-19T07:02:47;17.98;;;6.70;;
52316;SDS011;38725;41.994;21.458;2022-08-19T07:05:14;9.82;;;6.40;;
52316;SDS011;38725;41.994;21.458;2022-08-19T07:07:40;10.18;;;6.32;;
52316;SDS011;38725;41.994;21.458;2022-08-19T07:10:08;11.20;;;6.60;;
52316;SDS011;38725;41.994;21.458;2022-08-19T07:12:34;15.20;;;6.25;;
52316;SDS011;38725;41.994;21.458;2022-08-19T07:15:01;11.75;;;6.38;;
52316;SDS011;38725;41.994;21.458;2022-08-19T07:17:28;11.38;;;6.30;;
52316;SDS011;38725;41.994;21.458;2022-08-19T07:19:54;13.20;;;6.82;;
52316;SDS011;38725;41.994;21.458;2022-08-19T07:22:20;11.82;;;6.20;;
52316;SDS011;38725;41.994;21.458;2022-08-19T07:24:50;11.30;;;5.90;;
52316;SDS011;38725;41.994;21.458;2022-08-19T07:27:17;14.80;;;6.72;;
52316;SDS011;38725;41.994;21.458;2022-08-19T07:29:44;12.07;;;5.88;;
52316;SDS011;38725;41.994;21.458;2022-08-19T07:32:10;9.32;;;6.57;;
52316;SDS011;38725;41.994;21.458;2022-08-19T07:34:37;8.95;;;5.88;;
52316;SDS011;38725;41.994;21.458;2022-08-19T07:37:04;9.85;;;5.93;;
52316;SDS011;38725;41.994;21.458;2022-08-19T07:39:31;11.27;;;6.20;;
52316;SDS011;38725;41.994;21.458;2022-08-19T07:41:58;10.40;;;6.40;;
52316;SDS011;38725;41.994;21.458;2022-08-19T07:44:25;12.23;;;5.60;;
52316;SDS011;38725;41.994;21.458;2022-08-19T07:46:52;7.78;;;5.60;;
52316;SDS011;38725;41.994;21.458;2022-08-19T07:49:20;11.73;;;6.13;;
52316;SDS011;38725;41.994;21.458;2022-08-19T07:52:04;7.78;;;5.65;;
52316;SDS011;38725;41.994;21.458;2022-08-19T07:54:31;18.45;;;6.30;;
52316;SDS011;38725;41.994;21.458;2022-08-19T07:56:59;10.35;;;5.95;;
52316;SDS011;38725;41.994;21.458;2022-08-19T07:59:26;10.25;;;5.63;;
52316;SDS011;38725;41.994;21.458;2022-08-19T08:01:53;11.30;;;5.20;;
52316;SDS011;38725;41.994;21.458;2022-08-19T08:04:19;13.27;;;6.35;;
52316;SDS011;38725;41.994;21.458;2022-08-19T08:07:05;9.50;;;5.60;;
52316;SDS011;38725;41.994;21.458;2022-08-19T08:09:50;9.88;;;5.90;;
52316;SDS011;38725;41.994;21.458;2022-08-19T08:12:25;11.38;;;5.85;;
52316;SDS011;38725;41.994;21.458;2022-08-19T08:14:55;10.75;;;5.15;;
52316;SDS011;38725;41.994;21.458;2022-08-19T08:17:23;7.78;;;5.00;;
52316;SDS011;38725;41.994;21.458;2022-08-19T08:19:49;11.55;;;5.40;;
52316;SDS011;38725;41.994;21.458;2022-08-19T08:22:17;8.68;;;5.20;;
52316;SDS011;38725;41.994;21.458;2022-08-19T08:25:06;13.48;;;5.15;;
52316;SDS011;38725;41.994;21.458;2022-08-19T08:27:40;7.80;;;4.55;;
52316;SDS011;38725;41.994;21.458;2022-08-19T08:30:07;17.33;;;5.82;;
52316;SDS011;38725;41.994;21.458;2022-08-19T08:32:34;9.77;;;4.63;;
52316;SDS011;38725;41.994;21.458;2022-08-19T08:35:01;8.93;;;4.75;;
52316;SDS011;38725;41.994;21.458;2022-08-19T08:37:27;7.55;;;4.97;;
52316;SDS011;38725;41.994;21.458;2022-08-19T08:39:53;7.55;;;4.60;;
52316;SDS011;38725;41.994;21.458;2022-08-19T08:42:22;8.48;;;4.47;;
52316;SDS011;38725;41.994;21.458;2022-08-19T08:45:05;7.85;;;4.30;;
52316;SDS011;38725;41.994;21.458;2022-08-19T08:47:36;9.38;;;4.68;;
52316;SDS011;38725;41.994;21.458;2022-08-19T08:50:05;9.27;;;4.43;;
52316;SDS011;38725;41.994;21.458;2022-08-19T08:52:35;6.85;;;4.10;;
52316;SDS011;38725;41.994;21.458;2022-08-19T08:55:06;8.43;;;4.30;;
52316;SDS011;38725;41.994;21.458;2022-08-19T08:57:43;7.65;;;4.20;;
52316;SDS011;38725;41.994;21.458;2022-08-19T09:00:12;5.63;;;3.65;;
52316;SDS011;38725;41.994;21.458;2022-08-19T09:02:41;7.78;;;4.53;;
52316;SDS011;38725;41.994;21.458;2022-08-19T09:05:08;6.70;;;4.35;;
52316;SDS011;38725;41.994;21.458;2022-08-19T09:12:53;8.75;;;4.35;;
52316;SDS011;38725;41.994;21.458;2022-08-19T09:15:25;9.00;;;4.03;;
52316;SDS011;38725;41.994;21.458;2022-08-19T09:17:54;6.20;;;3.65;;
52316;SDS011;38725;41.994;21.458;2022-08-19T09:20:21;7.25;;;3.90;;
52316;SDS011;38725;41.994;21.458;2022-08-19T09:22:48;6.35;;;3.55;;
52316;SDS011;38725;41.994;21.458;2022-08-19T09:25:18;8.80;;;3.97;;
52316;SDS011;38725;41.994;21.458;2022-08-19T09:27:48;5.05;;;3.15;;
52316;SDS011;38725;41.994;21.458;2022-08-19T09:30:19;12.20;;;3.85;;
52316;SDS011;38725;41.994;21.458;2022-08-19T09:32:47;7.43;;;3.88;;
52316;SDS011;38725;41.994;21.458;2022-08-19T09:35:13;9.05;;;3.47;;
52316;SDS011;38725;41.994;21.458;2022-08-19T09:37:41;6.78;;;3.45;;
52316;SDS011;38725;41.994;21.458;2022-08-19T09:40:08;5.28;;;4.00;;
52316;SDS011;38725;41.994;21.458;2022-08-19T09:42:34;6.85;;;3.97;;
52316;SDS011;38725;41.994;21.458;2022-08-19T09:45:00;8.35;;;4.20;;
52316;SDS011;38725;41.994;21.458;2022-08-19T09:47:28;5.43;;;3.40;;
52316;SDS011;38725;41.994;21.458;2022-08-19T09:49:54;8.27;;;3.90;;
52316;SDS011;38725;41.994;21.458;2022-08-19T09:52:20;5.85;;;3.63;;
52316;SDS011;38725;41.994;21.458;2022-08-19T09:54:46;8.73;;;3.70;;
52316;SDS011;38725;41.994;21.458;2022-08-19T09:57:12;6.18;;;3.58;;
52316;SDS011;38725;41.994;21.458;2022-08-19T09:59:38;12.32;;;3.58;;
52316;SDS011;38725;41.994;21.458;2022-08-19T10:02:05;6.35;;;3.28;;
52316;SDS011;38725;41.994;21.458;2022-08-19T10:04:31;9.07;;;3.70;;
52316;SDS011;38725;41.994;21.458;2022-08-19T10:07:16;11.25;;;3.70;;
52316;SDS011;38725;41.994;21.458;2022-08-19T10:09:42;7.95;;;3.33;;
52316;SDS011;38725;41.994;21.458;2022-08-19T10:12:08;8.45;;;3.83;;
52316;SDS011;38725;41.994;21.458;2022-08-19T10:14:34;5.82;;;3.40;;
52316;SDS011;38725;41.994;21.458;2022-08-19T10:17:01;10.25;;;3.53;;
52316;SDS011;38725;41.994;21.458;2022-08-19T10:19:28;9.82;;;3.72;;
52316;SDS011;38725;41.994;21.458;2022-08-19T10:22:02;7.80;;;3.50;;
52316;SDS011;38725;41.994;21.458;2022-08-19T10:24:28;8.07;;;3.05;;
52316;SDS011;38725;41.994;21.458;2022-08-19T10:26:56;6.32;;;3.67;;
52316;SDS011;38725;41.994;21.458;2022-08-19T10:29:22;6.82;;;3.97;;
52316;SDS011;38725;41.994;21.458;2022-08-19T10:31:48;6.75;;;4.15;;
52316;SDS011;38725;41.994;21.458;2022-08-19T10:34:14;7.57;;;3.47;;
52316;SDS011;38725;41.994;21.458;2022-08-19T10:36:41;6.97;;;3.67;;
52316;SDS011;38725;41.994;21.458;2022-08-19T10:39:08;6.47;;;3.53;;
52316;SDS011;38725;41.994;21.458;2022-08-19T10:41:36;10.10;;;3.67;;
52316;SDS011;38725;41.994;21.458;2022-08-19T10:44:05;6.78;;;3.80;;
52316;SDS011;38725;41.994;21.458;2022-08-19T10:46:32;7.72;;;4.00;;
52316;SDS011;38725;41.994;21.458;2022-08-19T10:48:59;8.18;;;3.45;;
52316;SDS011;38725;41.994;21.458;2022-08-19T10:51:26;12.45;;;4.28;;
52316;SDS011;38725;41.994;21.458;2022-08-19T10:54:11;9.85;;;3.78;;
52316;SDS011;38725;41.994;21.458;2022-08-19T10:56:37;6.97;;;3.40;;
52316;SDS011;38725;41.994;21.458;2022-08-19T10:59:21;5.03;;;3.60;;
52316;SDS011;38725;41.994;21.458;2022-08-19T11:01:48;5.85;;;3.92;;
52316;SDS011;38725;41.994;21.458;2022-08-19T11:04:15;9.73;;;4.50;;
52316;SDS011;38725;41.994;21.458;2022-08-19T11:06:43;14.18;;;4.28;;
52316;SDS011;38725;41.994;21.458;2022-08-19T11:09:13;6.85;;;2.83;;
52316;SDS011;38725;41.994;21.458;2022-08-19T11:11:40;6.40;;;3.40;;
52316;SDS011;38725;41.994;21.458;2022-08-19T11:14:11;8.20;;;3.00;;
52316;SDS011;38725;41.994;21.458;2022-08-19T11:16:37;6.40;;;3.10;;
52316;SDS011;38725;41.994;21.458;2022-08-19T11:19:07;7.95;;;3.42;;
52316;SDS011;38725;41.994;21.458;2022-08-19T11:21:38;4.32;;;2.83;;
52316;SDS011;38725;41.994;21.458;2022-08-19T11:24:06;7.55;;;3.20;;
52316;SDS011;38725;41.994;21.458;2022-08-19T11:26:33;8.70;;;3.15;;
52316;SDS011;38725;41.994;21.458;2022-08-19T11:28:59;5.05;;;2.72;;
52316;SDS011;38725;41.994;21.458;2022-08-19T11:31:27;6.15;;;3.03;;
52316;SDS011;38725;41.994;21.458;2022-08-19T11:33:55;5.85;;;2.75;;
52316;SDS011;38725;41.994;21.458;2022-08-19T11:36:21;7.30;;;2.83;;
52316;SDS011;38725;41.994;21.458;2022-08-19T11:38:48;8.68;;;2.60;;
52316;SDS011;38725;41.994;21.458;2022-08-19T11:41:16;6.75;;;2.45;;
52316;SDS011;38725;41.994;21.458;2022-08-19T11:43:43;9.18;;;3.35;;
52316;SDS011;38725;41.994;21.458;2022-08-19T11:46:10;9.55;;;3.40;;
52316;SDS011;38725;41.994;21.458;2022-08-19T11:48:37;7.55;;;3.20;;
52316;SDS011;38725;41.994;21.458;2022-08-19T11:51:04;4.97;;;2.65;;
52316;SDS011;38725;41.994;21.458;2022-08-19T11:53:31;7.82;;;2.80;;
52316;SDS011;38725;41.994;21.458;2022-08-19T11:55:57;5.15;;;2.70;;
52316;SDS011;38725;41.994;21.458;2022-08-19T11:58:24;13.68;;;3.00;;
52316;SDS011;38725;41.994;21.458;2022-08-19T12:00:51;7.18;;;2.60;;
52316;SDS011;38725;41.994;21.458;2022-08-19T12:03:17;7.00;;;2.85;;
52316;SDS011;38725;41.994;21.458;2022-08-19T12:05:44;33.35;;;4.60;;
52316;SDS011;38725;41.994;21.458;2022-08-19T12:08:11;7.78;;;2.55;;
52316;SDS011;38725;41.994;21.458;2022-08-19T12:10:41;8.30;;;2.90;;
52316;SDS011;38725;41.994;21.458;2022-08-19T12:13:07;6.82;;;3.78;;
52316;SDS011;38725;41.994;21.458;2022-08-19T12:15:37;9.02;;;2.80;;
52316;SDS011;38725;41.994;21.458;2022-08-19T12:18:05;8.70;;;3.20;;
52316;SDS011;38725;41.994;21.458;2022-08-19T12:20:33;8.95;;;3.00;;
52316;SDS011;38725;41.994;21.458;2022-08-19T12:23:00;10.45;;;2.65;;
52316;SDS011;38725;41.994;21.458;2022-08-19T12:25:26;7.25;;;2.80;;
52316;SDS011;38725;41.994;21.458;2022-08-19T12:27:52;8.90;;;2.70;;
52316;SDS011;38725;41.994;21.458;2022-08-19T12:30:19;6.25;;;3.20;;
52316;SDS011;38725;41.994;21.458;2022-08-19T12:32:46;11.68;;;2.88;;
52316;SDS011;38725;41.994;21.458;2022-08-19T12:35:12;14.50;;;3.65;;
52316;SDS011;38725;41.994;21.458;2022-08-19T12:37:38;14.25;;;3.55;;
52316;SDS011;38725;41.994;21.458;2022-08-19T12:40:07;7.85;;;2.83;;
52316;SDS011;38725;41.994;21.458;2022-08-19T12:42:33;11.65;;;3.10;;
52316;SDS011;38725;41.994;21.458;2022-08-19T12:44:59;9.20;;;3.35;;
52316;SDS011;38725;41.994;21.458;2022-08-19T12:47:26;7.10;;;3.45;;
52316;SDS011;38725;41.994;21.458;2022-08-19T12:49:52;6.18;;;3.50;;
52316;SDS011;38725;41.994;21.458;2022-08-19T12:52:19;8.70;;;3.13;;
52316;SDS011;38725;41.994;21.458;2022-08-19T12:54:46;5.88;;;2.75;;
52316;SDS011;38725;41.994;21.458;2022-08-19T12:57:12;8.52;;;2.60;;
52316;SDS011;38725;41.994;21.458;2022-08-19T12:59:38;11.00;;;3.28;;
52316;SDS011;38725;41.994;21.458;2022-08-19T13:02:06;8.30;;;2.85;;
52316;SDS011;38725;41.994;21.458;2022-08-19T13:04:33;5.72;;;2.58;;
52316;SDS011;38725;41.994;21.458;2022-08-19T13:07:01;13.30;;;3.10;;
52316;SDS011;38725;41.994;21.458;2022-08-19T13:09:27;7.18;;;2.95;;
52316;SDS011;38725;41.994;21.458;2022-08-19T13:11:53;10.25;;;3.17;;
52316;SDS011;38725;41.994;21.458;2022-08-19T13:14:21;7.85;;;2.92;;
52316;SDS011;38725;41.994;21.458;2022-08-19T13:16:48;12.15;;;3.45;;
52316;SDS011;38725;41.994;21.458;2022-08-19T13:19:14;10.98;;;3.20;;
52316;SDS011;38725;41.994;21.458;2022-08-19T13:21:40;8.38;;;3.20;;
52316;SDS011;38725;41.994;21.458;2022-08-19T13:24:06;11.55;;;3.10;;
52316;SDS011;38725;41.994;21.458;2022-08-19T13:26:32;11.10;;;3.30;;
52316;SDS011;38725;41.994;21.458;2022-08-19T13:28:59;7.15;;;3.03;;
52316;SDS011;38725;41.994;21.458;2022-08-19T13:31:43;14.30;;;3.53;;
52316;SDS011;38725;41.994;21.458;2022-08-19T13:34:32;11.75;;;2.97;;
52316;SDS011;38725;41.994;21.458;2022-08-19T13:36:59;11.02;;;3.28;;
52316;SDS011;38725;41.994;21.458;2022-08-19T13:39:28;12.13;;;3.63;;
52316;SDS011;38725;41.994;21.458;2022-08-19T13:41:54;12.15;;;3.30;;
52316;SDS011;38725;41.994;21.458;2022-08-19T13:44:21;11.57;;;2.58;;
52316;SDS011;38725;41.994;21.458;2022-08-19T13:46:48;11.75;;;3.45;;
52316;SDS011;38725;41.994;21.458;2022-08-19T13:49:16;15.80;;;3.65;;
52316;SDS011;38725;41.994;21.458;2022-08-19T13:51:42;14.93;;;3.30;;
52316;SDS011;38725;41.994;21.458;2022-08-19T13:54:09;10.93;;;3.10;;
52316;SDS011;38725;41.994;21.458;2022-08-19T13:56:39;8.93;;;2.88;;
52316;SDS011;38725;41.994;21.458;2022-08-19T13:59:06;14.75;;;3.05;;
52316;SDS011;38725;41.994;21.458;2022-08-19T14:01:32;14.05;;;3.58;;
52316;SDS011;38725;41.994;21.458;2022-08-19T14:04:00;10.48;;;3.20;;
52316;SDS011;38725;41.994;21.458;2022-08-19T14:06:26;11.90;;;3.60;;
52316;SDS011;38725;41.994;21.458;2022-08-19T14:08:52;11.95;;;3.20;;
52316;SDS011;38725;41.994;21.458;2022-08-19T14:11:18;20.63;;;3.75;;
52316;SDS011;38725;41.994;21.458;2022-08-19T14:13:44;12.43;;;3.10;;
52316;SDS011;38725;41.994;21.458;2022-08-19T14:16:12;13.70;;;3.65;;
52316;SDS011;38725;41.994;21.458;2022-08-19T14:18:38;13.68;;;3.58;;
52316;SDS011;38725;41.994;21.458;2022-08-19T14:21:05;10.82;;;3.40;;
52316;SDS011;38725;41.994;21.458;2022-08-19T14:23:32;11.30;;;2.92;;
52316;SDS011;38725;41.994;21.458;2022-08-19T14:26:08;11.60;;;3.20;;
52316;SDS011;38725;41.994;21.458;2022-08-19T14:28:35;8.40;;;2.67;;
52316;SDS011;38725;41.994;21.458;2022-08-19T14:31:01;12.52;;;3.05;;
52316;SDS011;38725;41.994;21.458;2022-08-19T14:33:27;11.60;;;2.97;;
52316;SDS011;38725;41.994;21.458;2022-08-19T14:35:53;15.50;;;3.60;;
52316;SDS011;38725;41.994;21.458;2022-08-19T14:38:19;15.25;;;3.55;;
52316;SDS011;38725;41.994;21.458;2022-08-19T14:40:45;12.90;;;2.58;;